createdAt,value
2018-07-15T00:02:21.925Z,90.40
2018-07-15T00:04:56.161Z,90.70
2018-07-15T00:07:30.261Z,90.70
2018-07-15T00:10:04.573Z,90.80
2018-07-15T00:12:38.739Z,90.90
2018-07-15T00:15:13.860Z,91.10
2018-07-15T00:17:47.559Z,91.30
2018-07-15T00:20:21.903Z,91.30
2018-07-15T00:22:56.415Z,91.30
2018-07-15T00:25:30.227Z,91.40
2018-07-15T00:28:04.367Z,91.50
2018-07-15T00:30:38.157Z,91.50
2018-07-15T00:33:12.302Z,91.50
2018-07-15T00:35:46.520Z,91.40
2018-07-15T00:38:22.802Z,91.30
2018-07-15T00:40:56.939Z,91.50
2018-07-15T00:43:30.703Z,91.70
2018-07-15T00:46:04.661Z,91.50
2018-07-15T00:48:38.374Z,91.50
2018-07-15T00:51:12.361Z,91.40
2018-07-15T00:53:46.265Z,91.50
2018-07-15T00:56:21.024Z,91.70
2018-07-15T00:58:54.868Z,91.70
2018-07-15T01:01:28.614Z,91.90
2018-07-15T01:04:02.326Z,91.90
2018-07-15T01:06:36.712Z,92.00
2018-07-15T01:09:12.509Z,92.30
2018-07-15T01:11:46.327Z,92.50
2018-07-15T01:14:20.475Z,92.80
2018-07-15T01:16:55.532Z,92.70
2018-07-15T01:19:29.840Z,92.80
2018-07-15T01:22:04.045Z,92.80
2018-07-15T01:24:37.764Z,93.10
2018-07-15T01:27:11.598Z,92.60
2018-07-15T01:29:45.497Z,92.70
2018-07-15T01:32:19.322Z,92.80
2018-07-15T01:34:53.146Z,92.70
2018-07-15T01:37:27.054Z,92.80
2018-07-15T01:40:00.805Z,93.00
2018-07-15T01:42:34.710Z,93.10
2018-07-15T01:45:08.745Z,93.00
2018-07-15T01:47:42.656Z,93.10
2018-07-15T01:50:16.453Z,93.10
2018-07-15T01:52:50.947Z,93.10
2018-07-15T01:55:25.172Z,93.20
2018-07-15T01:57:59.444Z,93.30
2018-07-15T02:00:33.701Z,93.40
2018-07-15T02:03:07.824Z,93.50
2018-07-15T02:05:42.038Z,94.10
2018-07-15T02:08:16.521Z,93.80
2018-07-15T02:10:50.785Z,93.70
2018-07-15T02:13:28.055Z,93.70
2018-07-15T02:16:03.752Z,93.70
2018-07-15T02:18:37.814Z,93.50
2018-07-15T02:21:11.465Z,94.00
2018-07-15T02:23:45.305Z,94.20
2018-07-15T02:26:19.034Z,94.30
2018-07-15T02:28:52.873Z,94.20
2018-07-15T02:31:26.771Z,94.10
2018-07-15T02:34:01.022Z,94.20
2018-07-15T02:36:36.113Z,94.00
2018-07-15T02:39:12.060Z,94.00
2018-07-15T02:41:45.795Z,94.10
2018-07-15T02:44:20.915Z,94.00
2018-07-15T02:46:58.907Z,94.20
2018-07-15T02:49:32.724Z,94.10
2018-07-15T02:52:06.549Z,94.30
2018-07-15T02:54:40.526Z,94.50
2018-07-15T02:57:14.262Z,95.00
2018-07-15T02:59:48.018Z,95.20
2018-07-15T03:02:21.827Z,95.20
2018-07-15T03:04:55.549Z,95.40
2018-07-15T03:07:29.376Z,95.80
2018-07-15T03:10:05.049Z,95.60
2018-07-15T03:12:39.153Z,95.70
2018-07-15T03:15:12.944Z,95.70
2018-07-15T03:17:48.405Z,95.70
2018-07-15T03:20:23.624Z,95.90
2018-07-15T03:22:57.734Z,95.80
2018-07-15T03:25:32.369Z,95.80
2018-07-15T03:28:06.247Z,95.50
2018-07-15T03:30:40.024Z,95.60
2018-07-15T03:33:13.800Z,95.60
2018-07-15T03:35:47.541Z,96.00
2018-07-15T03:38:21.515Z,95.60
2018-07-15T03:40:55.293Z,95.70
2018-07-15T03:43:29.120Z,95.70
2018-07-15T03:46:02.838Z,95.70
2018-07-15T03:48:36.872Z,95.80
2018-07-15T03:51:10.745Z,95.80
2018-07-15T03:53:44.583Z,95.70
2018-07-15T03:56:20.814Z,95.60
2018-07-15T03:58:54.581Z,95.80
2018-07-15T04:01:28.271Z,95.80
2018-07-15T04:04:01.976Z,96.10
2018-07-15T04:06:35.772Z,96.20
2018-07-15T04:09:10.028Z,96.30
2018-07-15T04:11:43.792Z,96.30
2018-07-15T04:14:17.534Z,96.80
2018-07-15T04:16:52.767Z,96.90
2018-07-15T04:19:26.737Z,96.90
2018-07-15T04:22:00.678Z,97.10
2018-07-15T04:24:34.304Z,96.90
2018-07-15T04:27:08.107Z,96.80
2018-07-15T04:29:41.882Z,96.70
2018-07-15T04:32:15.602Z,96.80
2018-07-15T04:34:49.329Z,96.80
2018-07-15T04:37:23.066Z,97.20
2018-07-15T04:39:56.952Z,97.80
2018-07-15T04:42:30.684Z,98.10
2018-07-15T04:45:04.435Z,98.50
2018-07-15T04:47:38.158Z,99.00
2018-07-15T04:50:12.030Z,99.40
2018-07-15T04:52:45.972Z,99.90
2018-07-15T04:55:19.807Z,99.90
2018-07-15T04:57:53.532Z,99.90
2018-07-15T05:00:27.350Z,99.90
2018-07-15T05:03:01.108Z,99.90
2018-07-15T05:05:34.874Z,99.90
2018-07-15T05:08:08.652Z,99.90
2018-07-15T05:10:42.311Z,99.90
2018-07-15T05:13:15.947Z,99.90
2018-07-15T05:15:49.684Z,99.90
2018-07-15T05:18:23.456Z,99.90
2018-07-15T05:20:57.350Z,99.90
2018-07-15T05:23:31.097Z,99.90
2018-07-15T05:26:04.934Z,99.90
2018-07-15T05:28:38.613Z,99.90
2018-07-15T05:31:12.485Z,99.90
2018-07-15T05:33:46.299Z,99.90
2018-07-15T05:36:20.081Z,99.90
2018-07-15T05:38:55.125Z,99.90
2018-07-15T05:41:28.946Z,99.90
2018-07-15T05:44:02.721Z,99.90
2018-07-15T05:46:36.341Z,99.90
2018-07-15T05:49:10.095Z,99.90
2018-07-15T05:51:43.823Z,99.90
2018-07-15T05:54:17.858Z,99.90
2018-07-15T05:56:51.810Z,99.90
2018-07-15T05:59:25.589Z,99.90
2018-07-15T06:01:59.479Z,99.90
2018-07-15T06:04:33.417Z,99.90
2018-07-15T06:07:07.199Z,99.90
2018-07-15T06:09:41.041Z,99.90
2018-07-15T06:12:14.889Z,99.90
2018-07-15T06:14:49.154Z,99.90
2018-07-15T06:17:22.914Z,99.50
2018-07-15T06:19:56.752Z,99.00
2018-07-15T06:22:35.016Z,97.70
2018-07-15T06:25:09.407Z,98.00
2018-07-15T06:27:43.243Z,97.60
2018-07-15T06:30:17.050Z,97.40
2018-07-15T06:32:51.118Z,97.20
2018-07-15T06:35:25.429Z,97.00
2018-07-15T06:37:59.953Z,97.00
2018-07-15T06:40:34.119Z,95.40
2018-07-15T06:43:10.243Z,94.60
2018-07-15T06:45:44.139Z,95.00
2018-07-15T06:48:17.921Z,95.30
2018-07-15T06:50:51.761Z,95.10
2018-07-15T06:53:26.179Z,94.70
2018-07-15T06:56:00.818Z,93.80
2018-07-15T06:58:34.882Z,93.80
2018-07-15T07:01:08.589Z,93.00
2018-07-15T07:03:42.333Z,92.30
2018-07-15T07:06:16.096Z,92.00
2018-07-15T07:08:50.445Z,92.10
2018-07-15T07:11:24.289Z,91.90
2018-07-15T07:13:58.129Z,91.40
2018-07-15T07:16:32.204Z,90.40
2018-07-15T07:19:06.003Z,90.20
2018-07-15T07:21:39.696Z,90.30
2018-07-15T07:24:13.404Z,90.60
2018-07-15T07:26:47.292Z,89.90
2018-07-15T07:29:22.390Z,87.60
2018-07-15T07:31:56.088Z,87.70
2018-07-15T07:34:30.017Z,86.60
2018-07-15T07:37:04.197Z,87.10
2018-07-15T07:39:38.844Z,85.60
2018-07-15T07:42:12.722Z,86.20
2018-07-15T07:44:46.809Z,85.70
2018-07-15T07:47:20.955Z,85.40
2018-07-15T07:49:55.057Z,85.20
2018-07-15T07:52:29.192Z,84.40
2018-07-15T07:55:03.036Z,84.30
2018-07-15T07:57:38.885Z,82.90
2018-07-15T08:00:12.648Z,82.20
2018-07-15T08:02:46.445Z,81.60
2018-07-15T08:05:21.512Z,81.10
2018-07-15T08:07:55.268Z,82.70
2018-07-15T08:10:29.019Z,83.20
2018-07-15T08:13:02.750Z,83.40
2018-07-15T08:15:37.914Z,82.60
2018-07-15T08:18:11.670Z,79.00
2018-07-15T08:20:45.401Z,78.80
2018-07-15T08:23:19.434Z,77.70
2018-07-15T08:25:53.283Z,77.30
2018-07-15T08:28:27.238Z,78.70
2018-07-15T08:31:13.106Z,77.80
2018-07-15T08:33:46.808Z,77.00
2018-07-15T08:36:20.582Z,77.60
2018-07-15T08:38:54.265Z,77.60
2018-07-15T08:41:28.943Z,77.10
2018-07-15T08:44:02.623Z,75.10
2018-07-15T08:46:37.404Z,75.70
2018-07-15T08:49:11.226Z,75.80
2018-07-15T08:51:46.185Z,75.20
2018-07-15T08:54:20.153Z,75.20
2018-07-15T08:56:54.078Z,75.30
2018-07-15T08:59:27.896Z,74.80
2018-07-15T09:02:01.708Z,75.30
2018-07-15T09:04:35.874Z,75.30
2018-07-15T09:07:09.887Z,74.90
2018-07-15T09:09:43.680Z,74.60
2018-07-15T09:12:17.431Z,76.00
2018-07-15T09:14:51.392Z,74.30
2018-07-15T09:17:25.329Z,72.90
2018-07-15T09:19:59.223Z,73.10
2018-07-15T09:22:33.279Z,73.70
2018-07-15T09:25:08.033Z,75.30
2018-07-15T09:27:44.333Z,73.40
2018-07-15T09:30:18.157Z,72.00
2018-07-15T09:32:51.979Z,71.40
2018-07-15T09:35:26.021Z,71.20
2018-07-15T09:37:59.877Z,71.40
2018-07-15T09:40:33.695Z,69.40
2018-07-15T09:43:10.233Z,68.80
2018-07-15T09:45:45.731Z,70.80
2018-07-15T09:48:21.158Z,70.10
2018-07-15T09:50:58.098Z,69.30
2018-07-15T09:53:33.450Z,69.40
2018-07-15T09:56:08.495Z,68.90
2018-07-15T09:58:48.393Z,69.40
2018-07-15T10:01:23.403Z,68.80
2018-07-15T10:03:58.358Z,69.10
2018-07-15T10:06:33.144Z,68.80
2018-07-15T10:09:08.011Z,66.50
2018-07-15T10:11:42.493Z,66.10
2018-07-15T10:14:16.376Z,66.40
2018-07-15T10:16:50.336Z,67.40
2018-07-15T10:19:24.758Z,67.90
2018-07-15T10:21:59.975Z,68.30
2018-07-15T10:24:34.740Z,68.30
2018-07-15T10:27:08.596Z,65.80
2018-07-15T10:29:44.231Z,65.30
2018-07-15T10:32:18.081Z,66.00
2018-07-15T10:34:53.180Z,66.80
2018-07-15T10:37:27.764Z,65.90
2018-07-15T10:40:01.913Z,66.00
2018-07-15T10:42:35.635Z,63.50
2018-07-15T10:45:10.773Z,63.00
2018-07-15T10:47:45.024Z,64.00
2018-07-15T10:50:18.883Z,64.00
2018-07-15T10:52:52.764Z,64.00
2018-07-15T10:55:26.581Z,64.00
2018-07-15T10:58:00.379Z,65.40
2018-07-15T11:00:34.308Z,64.20
2018-07-15T11:03:08.148Z,62.80
2018-07-15T11:05:41.931Z,62.20
2018-07-15T11:08:15.746Z,62.20
2018-07-15T11:10:49.663Z,63.30
2018-07-15T11:13:23.642Z,62.70
2018-07-15T11:15:57.399Z,60.90
2018-07-15T11:18:31.317Z,59.90
2018-07-15T11:21:05.224Z,59.30
2018-07-15T11:26:12.216Z,58.60
2018-07-15T11:28:46.113Z,57.50
2018-07-15T11:31:19.978Z,58.40
2018-07-15T11:33:53.829Z,58.50
2018-07-15T11:36:27.739Z,58.30
2018-07-15T11:39:01.528Z,59.10
2018-07-15T11:41:35.192Z,59.10
2018-07-15T11:44:09.046Z,59.60
2018-07-15T11:46:42.736Z,59.50
2018-07-15T11:49:16.673Z,57.90
2018-07-15T11:51:50.535Z,58.00
2018-07-15T11:54:24.494Z,57.10
2018-07-15T11:56:58.559Z,57.00
2018-07-15T11:59:32.332Z,56.80
2018-07-15T12:02:06.074Z,57.90
2018-07-15T12:04:40.271Z,57.00
2018-07-15T12:07:14.112Z,56.10
2018-07-15T12:09:47.740Z,55.60
2018-07-15T12:12:21.410Z,56.70
2018-07-15T12:14:55.224Z,54.50
2018-07-15T12:17:28.981Z,54.40
2018-07-15T12:20:02.780Z,53.50
2018-07-15T12:22:36.457Z,53.20
2018-07-15T12:25:10.406Z,53.30
2018-07-15T12:27:44.161Z,52.60
2018-07-15T12:30:17.869Z,53.90
2018-07-15T12:32:51.560Z,54.00
2018-07-15T12:35:25.316Z,53.60
2018-07-15T12:37:59.082Z,53.50
2018-07-15T12:40:32.744Z,52.30
2018-07-15T12:43:06.712Z,52.40
2018-07-15T12:45:40.460Z,52.10
2018-07-15T12:48:14.240Z,53.80
2018-07-15T12:50:48.058Z,53.50
2018-07-15T12:53:21.746Z,52.90
2018-07-15T12:55:55.574Z,51.20
2018-07-15T12:58:29.365Z,51.80
2018-07-15T13:01:03.082Z,51.00
2018-07-15T13:03:36.944Z,51.20
2018-07-15T13:06:10.802Z,51.90
2018-07-15T13:08:44.578Z,51.80
2018-07-15T13:11:18.448Z,53.00
2018-07-15T13:13:52.376Z,53.00
2018-07-15T13:16:26.229Z,53.30
2018-07-15T13:18:59.926Z,53.80
2018-07-15T13:21:33.722Z,51.70
2018-07-15T13:24:07.536Z,53.40
2018-07-15T13:26:41.317Z,52.70
2018-07-15T13:29:15.176Z,52.70
2018-07-15T13:31:48.912Z,52.70
2018-07-15T13:34:22.713Z,53.10
2018-07-15T13:36:56.479Z,53.70
2018-07-15T13:39:30.567Z,53.10
2018-07-15T13:42:04.322Z,52.70
2018-07-15T13:44:38.076Z,52.70
2018-07-15T13:47:11.871Z,52.50
2018-07-15T13:49:45.566Z,52.00
2018-07-15T13:52:19.377Z,51.00
2018-07-15T13:54:53.178Z,51.00
2018-07-15T13:57:26.987Z,50.30
2018-07-15T14:00:01.790Z,50.60
2018-07-15T14:02:35.519Z,51.20
2018-07-15T14:05:09.617Z,51.70
2018-07-15T14:07:43.391Z,51.00
2018-07-15T14:10:17.392Z,50.80
2018-07-15T14:12:51.126Z,50.60
2018-07-15T14:15:24.970Z,49.80
2018-07-15T14:17:58.685Z,49.50
2018-07-15T14:20:32.538Z,48.00
2018-07-15T14:23:06.213Z,48.20
2018-07-15T14:25:39.985Z,48.40
2018-07-15T14:28:13.612Z,48.10
2018-07-15T14:30:47.275Z,49.20
2018-07-15T14:33:21.021Z,50.00
2018-07-15T14:35:54.706Z,50.40
2018-07-15T14:38:28.364Z,50.10
2018-07-15T14:41:03.462Z,50.60
2018-07-15T14:43:37.998Z,50.10
2018-07-15T14:46:14.858Z,49.60
2018-07-15T14:48:50.889Z,46.90
2018-07-15T14:51:26.780Z,47.20
2018-07-15T14:54:03.016Z,47.60
2018-07-15T14:56:39.811Z,48.50
2018-07-15T14:59:13.939Z,49.70
2018-07-15T15:01:49.394Z,50.00
2018-07-15T15:04:24.219Z,50.20
2018-07-15T15:09:31.582Z,51.80
2018-07-15T15:12:05.977Z,50.00
2018-07-15T15:14:41.665Z,48.40
2018-07-15T15:17:15.988Z,48.90
2018-07-15T15:19:49.710Z,47.50
2018-07-15T15:22:23.508Z,48.10
2018-07-15T15:24:57.170Z,47.90
2018-07-15T15:27:30.821Z,48.20
2018-07-15T15:30:04.627Z,48.70
2018-07-15T15:32:38.459Z,48.20
2018-07-15T15:35:12.465Z,49.20
2018-07-15T15:37:46.307Z,49.40
2018-07-15T15:40:20.089Z,48.80
2018-07-15T15:42:53.924Z,47.60
2018-07-15T15:45:27.638Z,47.30
2018-07-15T15:48:01.318Z,47.00
2018-07-15T15:50:35.135Z,45.70
2018-07-15T15:53:08.905Z,45.30
2018-07-15T15:55:42.752Z,44.30
2018-07-15T15:58:16.584Z,45.30
2018-07-15T16:00:50.391Z,45.40
2018-07-15T16:03:24.387Z,45.90
2018-07-15T16:05:58.174Z,46.20
2018-07-15T16:08:32.128Z,46.10
2018-07-15T16:11:06.097Z,45.70
2018-07-15T16:13:39.825Z,45.90
2018-07-15T16:16:13.586Z,47.00
2018-07-15T16:18:47.457Z,47.90
2018-07-15T16:21:21.710Z,48.80
2018-07-15T16:23:55.538Z,48.30
2018-07-15T16:26:29.834Z,48.10
2018-07-15T16:29:03.620Z,47.50
2018-07-15T16:31:37.414Z,48.20
2018-07-15T16:34:11.169Z,48.10
2018-07-15T16:36:45.621Z,48.10
2018-07-15T16:39:20.615Z,47.60
2018-07-15T16:41:56.616Z,47.40
2018-07-15T16:44:32.667Z,46.70
2018-07-15T16:47:07.706Z,46.60
2018-07-15T16:49:41.621Z,46.60
2018-07-15T16:52:17.212Z,46.80
2018-07-15T16:54:52.089Z,45.90
2018-07-15T16:57:25.889Z,45.40
2018-07-15T17:00:00.009Z,45.60
2018-07-15T17:02:33.655Z,44.80
2018-07-15T17:05:07.352Z,45.50
2018-07-15T17:07:41.085Z,45.40
2018-07-15T17:10:14.910Z,45.40
2018-07-15T17:12:48.607Z,45.70
2018-07-15T17:15:22.447Z,46.20
2018-07-15T17:17:56.207Z,47.60
2018-07-15T17:20:29.965Z,48.20
2018-07-15T17:23:03.669Z,48.20
2018-07-15T17:25:37.417Z,48.00
2018-07-15T17:28:11.182Z,48.60
2018-07-15T17:30:44.879Z,48.50
2018-07-15T17:33:18.655Z,48.90
2018-07-15T17:35:52.396Z,48.80
2018-07-15T17:38:26.186Z,50.00
2018-07-15T17:40:59.911Z,50.00
2018-07-15T17:43:33.750Z,50.50
2018-07-15T17:46:07.597Z,51.40
2018-07-15T17:48:41.441Z,52.10
2018-07-15T17:51:15.232Z,51.70
2018-07-15T17:53:49.118Z,52.80
2018-07-15T17:56:22.861Z,52.80
2018-07-15T17:58:56.788Z,53.30
2018-07-15T18:01:30.541Z,53.80
2018-07-15T18:04:04.258Z,54.00
2018-07-15T18:06:38.069Z,53.50
2018-07-15T18:09:12.065Z,54.30
2018-07-15T18:11:45.787Z,55.80
2018-07-15T18:14:19.614Z,54.60
2018-07-15T18:16:53.412Z,55.70
2018-07-15T18:19:27.123Z,56.50
2018-07-15T18:22:01.950Z,56.80
2018-07-15T18:24:36.552Z,58.20
2018-07-15T18:27:10.192Z,58.30
2018-07-15T18:29:44.493Z,56.80
2018-07-15T18:32:18.570Z,58.20
2018-07-15T18:34:52.256Z,58.60
2018-07-15T18:37:26.146Z,58.60
2018-07-15T18:39:59.808Z,58.20
2018-07-15T18:42:33.533Z,58.00
2018-07-15T18:45:07.424Z,58.40
2018-07-15T18:47:41.200Z,58.60
2018-07-15T18:50:14.915Z,59.00
2018-07-15T18:52:48.659Z,60.00
2018-07-15T18:55:22.842Z,59.90
2018-07-15T18:57:56.717Z,60.00
2018-07-15T19:00:30.548Z,60.40
2018-07-15T19:03:04.451Z,60.40
2018-07-15T19:05:38.203Z,60.70
2018-07-15T19:08:12.009Z,61.30
2018-07-15T19:10:45.805Z,61.50
2018-07-15T19:13:19.677Z,61.50
2018-07-15T19:15:53.432Z,62.30
2018-07-15T19:18:27.950Z,62.50
2018-07-15T19:21:01.665Z,63.10
2018-07-15T19:23:35.468Z,64.00
2018-07-15T19:26:09.307Z,63.20
2018-07-15T19:28:43.073Z,63.70
2018-07-15T19:31:16.864Z,63.80
2018-07-15T19:33:50.741Z,65.40
2018-07-15T19:36:24.574Z,64.80
2018-07-15T19:38:58.300Z,65.40
2018-07-15T19:41:32.007Z,65.60
2018-07-15T19:44:08.107Z,65.60
2018-07-15T19:46:41.762Z,65.70
2018-07-15T19:49:15.430Z,66.10
2018-07-15T19:51:49.098Z,66.70
2018-07-15T19:54:22.824Z,67.40
2018-07-15T19:56:56.486Z,67.30
2018-07-15T19:59:30.303Z,67.50
2018-07-15T20:02:03.955Z,67.60
2018-07-15T20:04:37.724Z,67.80
2018-07-15T20:07:11.487Z,68.30
2018-07-15T20:09:45.478Z,68.30
2018-07-15T20:12:19.163Z,68.80
2018-07-15T20:14:52.882Z,69.40
2018-07-15T20:17:26.519Z,69.80
2018-07-15T20:20:00.265Z,70.10
2018-07-15T20:22:33.905Z,70.40
2018-07-15T20:25:08.274Z,70.50
2018-07-15T20:27:42.052Z,71.50
2018-07-15T20:30:15.822Z,70.90
2018-07-15T20:32:49.546Z,71.20
2018-07-15T20:35:23.153Z,71.60
2018-07-15T20:37:56.846Z,72.20
2018-07-15T20:40:30.521Z,72.30
2018-07-15T20:43:04.123Z,72.90
2018-07-15T20:45:37.751Z,73.00
2018-07-15T20:48:11.395Z,73.00
2018-07-15T20:50:45.088Z,73.90
2018-07-15T20:53:19.528Z,74.10
2018-07-15T20:55:55.447Z,74.50
2018-07-15T20:58:29.285Z,74.80
2018-07-15T21:01:03.040Z,74.70
2018-07-15T21:03:36.804Z,75.00
2018-07-15T21:06:13.430Z,75.20
2018-07-15T21:08:48.711Z,75.70
2018-07-15T21:11:23.180Z,76.20
2018-07-15T21:13:57.762Z,76.30
2018-07-15T21:16:31.501Z,76.30
2018-07-15T21:19:05.280Z,76.40
2018-07-15T21:21:38.996Z,76.50
2018-07-15T21:24:12.843Z,77.10
2018-07-15T21:26:50.615Z,77.40
2018-07-15T21:29:24.457Z,77.60
2018-07-15T21:31:59.254Z,78.20
2018-07-15T21:34:32.954Z,78.70
2018-07-15T21:37:08.460Z,79.10
2018-07-15T21:39:43.290Z,79.30
2018-07-15T21:42:16.970Z,79.40
2018-07-15T21:44:53.414Z,79.80
2018-07-15T21:47:28.444Z,79.70
2018-07-15T21:50:02.618Z,79.80
2018-07-15T21:52:38.083Z,80.30
2018-07-15T21:55:12.044Z,80.50
2018-07-15T21:57:45.847Z,81.10
2018-07-15T22:00:19.621Z,81.80
2018-07-15T22:02:54.841Z,81.70
2018-07-15T22:05:30.257Z,82.30
2018-07-15T22:08:25.796Z,82.30
2018-07-15T22:10:59.992Z,82.30
2018-07-15T22:13:33.849Z,82.20
2018-07-15T22:16:07.572Z,82.30
2018-07-15T22:18:41.258Z,82.50
2018-07-15T22:21:15.259Z,82.70
2018-07-15T22:23:49.115Z,83.00
2018-07-15T22:26:23.007Z,83.60
2018-07-15T22:28:56.845Z,83.80
2018-07-15T22:31:31.728Z,84.20
2018-07-15T22:34:05.647Z,84.50
2018-07-15T22:36:39.647Z,85.00
2018-07-15T22:39:14.622Z,85.20
2018-07-15T22:41:48.468Z,85.40
2018-07-15T22:44:23.396Z,86.20
2018-07-15T22:46:58.915Z,86.00
2018-07-15T22:49:43.723Z,86.30
2018-07-15T22:52:19.085Z,87.00
2018-07-15T22:55:07.875Z,87.20
2018-07-15T22:57:53.065Z,87.50
2018-07-15T23:00:27.621Z,87.60
2018-07-15T23:03:01.852Z,88.70
2018-07-15T23:06:00.084Z,88.30
2018-07-15T23:08:34.363Z,88.80
2018-07-15T23:11:08.212Z,88.70
2018-07-15T23:13:41.879Z,88.70
2018-07-15T23:16:15.823Z,88.40
2018-07-15T23:18:49.507Z,89.40
2018-07-15T23:21:23.340Z,89.80
2018-07-15T23:26:30.129Z,90.20
2018-07-15T23:29:03.815Z,90.20
2018-07-15T23:31:37.497Z,90.60
2018-07-15T23:34:11.200Z,90.40
2018-07-15T23:36:44.914Z,90.60
2018-07-15T23:39:18.617Z,90.60
2018-07-15T23:41:52.460Z,90.60
2018-07-15T23:44:26.162Z,90.70
2018-07-15T23:46:59.971Z,90.80
2018-07-15T23:49:33.740Z,91.10
2018-07-15T23:52:07.672Z,91.70
2018-07-15T23:54:41.302Z,91.70
2018-07-15T23:57:15.099Z,91.90
2018-07-15T23:59:48.874Z,91.70
